sensor_id;sensor_type;location;lat;lon;timestamp;P1;durP1;ratioP1;P2;durP2;ratioP2
29414;SDS011;20303;48.302;11.914;2023-07-08T00:03:56;8.70;;;6.40;;
29414;SDS011;20303;48.302;11.914;2023-07-08T00:13:57;10.57;;;6.10;;
29414;SDS011;20303;48.302;11.914;2023-07-08T00:23:58;7.63;;;6.10;;
29414;SDS011;20303;48.302;11.914;2023-07-08T00:33:59;9.18;;;6.30;;
29414;SDS011;20303;48.302;11.914;2023-07-08T00:44:03;11.32;;;6.50;;
29414;SDS011;20303;48.302;11.914;2023-07-08T01:04:20;10.75;;;6.70;;
29414;SDS011;20303;48.302;11.914;2023-07-08T01:14:29;10.05;;;6.40;;
29414;SDS011;20303;48.302;11.914;2023-07-08T01:24:35;10.25;;;6.55;;
29414;SDS011;20303;48.302;11.914;2023-07-08T01:34:38;9.77;;;6.38;;
29414;SDS011;20303;48.302;11.914;2023-07-08T01:44:39;17.30;;;7.00;;
29414;SDS011;20303;48.302;11.914;2023-07-08T01:54:40;12.38;;;6.53;;
29414;SDS011;20303;48.302;11.914;2023-07-08T02:04:41;10.05;;;6.68;;
29414;SDS011;20303;48.302;11.914;2023-07-08T02:14:42;9.75;;;6.28;;
29414;SDS011;20303;48.302;11.914;2023-07-08T02:24:43;10.57;;;6.57;;
29414;SDS011;20303;48.302;11.914;2023-07-08T02:34:44;11.07;;;6.88;;
29414;SDS011;20303;48.302;11.914;2023-07-08T02:44:45;9.13;;;6.72;;
29414;SDS011;20303;48.302;11.914;2023-07-08T02:54:46;11.82;;;6.97;;
29414;SDS011;20303;48.302;11.914;2023-07-08T03:04:47;10.32;;;7.15;;
29414;SDS011;20303;48.302;11.914;2023-07-08T03:14:50;9.43;;;6.72;;
29414;SDS011;20303;48.302;11.914;2023-07-08T03:24:51;10.63;;;7.07;;
29414;SDS011;20303;48.302;11.914;2023-07-08T03:34:52;11.65;;;7.18;;
29414;SDS011;20303;48.302;11.914;2023-07-08T03:44:53;11.02;;;7.18;;
29414;SDS011;20303;48.302;11.914;2023-07-08T03:54:54;9.23;;;6.78;;
29414;SDS011;20303;48.302;11.914;2023-07-08T04:04:56;11.27;;;7.00;;
29414;SDS011;20303;48.302;11.914;2023-07-08T04:14:57;10.57;;;7.15;;
29414;SDS011;20303;48.302;11.914;2023-07-08T04:24:58;11.00;;;6.72;;
29414;SDS011;20303;48.302;11.914;2023-07-08T04:34:59;11.40;;;7.30;;
29414;SDS011;20303;48.302;11.914;2023-07-08T04:45:00;13.80;;;6.95;;
29414;SDS011;20303;48.302;11.914;2023-07-08T04:55:04;9.30;;;6.78;;
29414;SDS011;20303;48.302;11.914;2023-07-08T05:05:05;12.10;;;6.93;;
29414;SDS011;20303;48.302;11.914;2023-07-08T05:15:07;11.77;;;7.13;;
29414;SDS011;20303;48.302;11.914;2023-07-08T05:25:08;13.55;;;7.07;;
29414;SDS011;20303;48.302;11.914;2023-07-08T05:35:09;12.10;;;6.75;;
29414;SDS011;20303;48.302;11.914;2023-07-08T05:45:10;11.13;;;6.85;;
29414;SDS011;20303;48.302;11.914;2023-07-08T05:55:11;14.75;;;6.68;;
29414;SDS011;20303;48.302;11.914;2023-07-08T06:05:12;13.88;;;6.90;;
29414;SDS011;20303;48.302;11.914;2023-07-08T06:15:13;16.98;;;7.40;;
29414;SDS011;20303;48.302;11.914;2023-07-08T06:25:14;13.13;;;7.03;;
29414;SDS011;20303;48.302;11.914;2023-07-08T06:35:15;11.15;;;6.47;;
29414;SDS011;20303;48.302;11.914;2023-07-08T06:45:16;15.77;;;7.25;;
29414;SDS011;20303;48.302;11.914;2023-07-08T06:55:18;19.73;;;7.03;;
29414;SDS011;20303;48.302;11.914;2023-07-08T07:05:19;22.55;;;6.82;;
29414;SDS011;20303;48.302;11.914;2023-07-08T07:15:20;27.02;;;6.93;;
29414;SDS011;20303;48.302;11.914;2023-07-08T07:25:21;26.52;;;7.22;;
29414;SDS011;20303;48.302;11.914;2023-07-08T07:35:22;14.93;;;6.88;;
29414;SDS011;20303;48.302;11.914;2023-07-08T07:45:23;12.07;;;6.65;;
29414;SDS011;20303;48.302;11.914;2023-07-08T07:55:24;11.57;;;7.38;;
29414;SDS011;20303;48.302;11.914;2023-07-08T08:05:25;10.73;;;7.50;;
29414;SDS011;20303;48.302;11.914;2023-07-08T08:15:26;12.15;;;7.85;;
29414;SDS011;20303;48.302;11.914;2023-07-08T08:25:28;12.00;;;8.30;;
29414;SDS011;20303;48.302;11.914;2023-07-08T08:35:29;11.55;;;8.27;;
29414;SDS011;20303;48.302;11.914;2023-07-08T08:45:32;12.98;;;8.85;;
29414;SDS011;20303;48.302;11.914;2023-07-08T08:55:37;12.18;;;8.43;;
29414;SDS011;20303;48.302;11.914;2023-07-08T09:05:38;11.77;;;8.82;;
29414;SDS011;20303;48.302;11.914;2023-07-08T09:15:39;14.57;;;9.18;;
29414;SDS011;20303;48.302;11.914;2023-07-08T09:25:42;12.88;;;8.30;;
29414;SDS011;20303;48.302;11.914;2023-07-08T09:35:57;11.70;;;8.00;;
29414;SDS011;20303;48.302;11.914;2023-07-08T09:45:58;15.43;;;8.18;;
29414;SDS011;20303;48.302;11.914;2023-07-08T09:56:00;11.07;;;8.05;;
29414;SDS011;20303;48.302;11.914;2023-07-08T10:06:06;11.80;;;7.75;;
29414;SDS011;20303;48.302;11.914;2023-07-08T10:26:34;11.93;;;8.40;;
29414;SDS011;20303;48.302;11.914;2023-07-08T10:46:56;15.95;;;8.35;;
29414;SDS011;20303;48.302;11.914;2023-07-08T11:07:44;11.57;;;8.45;;
29414;SDS011;20303;48.302;11.914;2023-07-08T11:17:56;14.02;;;9.73;;
29414;SDS011;20303;48.302;11.914;2023-07-08T11:28:06;41.28;;;22.38;;
29414;SDS011;20303;48.302;11.914;2023-07-08T11:38:16;69.32;;;33.75;;
29414;SDS011;20303;48.302;11.914;2023-07-08T11:48:19;43.75;;;25.02;;
29414;SDS011;20303;48.302;11.914;2023-07-08T11:58:26;33.28;;;15.75;;
29414;SDS011;20303;48.302;11.914;2023-07-08T12:08:32;16.52;;;10.32;;
29414;SDS011;20303;48.302;11.914;2023-07-08T12:18:38;20.88;;;10.82;;
29414;SDS011;20303;48.302;11.914;2023-07-08T12:28:45;16.70;;;8.88;;
29414;SDS011;20303;48.302;11.914;2023-07-08T12:38:47;13.30;;;8.40;;
29414;SDS011;20303;48.302;11.914;2023-07-08T12:48:49;13.48;;;8.13;;
29414;SDS011;20303;48.302;11.914;2023-07-08T12:58:51;11.45;;;8.13;;
29414;SDS011;20303;48.302;11.914;2023-07-08T13:08:53;10.68;;;7.53;;
29414;SDS011;20303;48.302;11.914;2023-07-08T13:18:56;10.10;;;6.85;;
29414;SDS011;20303;48.302;11.914;2023-07-08T13:29:01;8.27;;;6.40;;
29414;SDS011;20303;48.302;11.914;2023-07-08T13:39:20;9.30;;;7.13;;
29414;SDS011;20303;48.302;11.914;2023-07-08T13:59:39;9.90;;;6.90;;
29414;SDS011;20303;48.302;11.914;2023-07-08T14:09:40;8.73;;;6.53;;
29414;SDS011;20303;48.302;11.914;2023-07-08T14:19:41;7.50;;;5.57;;
29414;SDS011;20303;48.302;11.914;2023-07-08T14:29:43;11.80;;;7.30;;
29414;SDS011;20303;48.302;11.914;2023-07-08T14:39:49;9.77;;;6.88;;
29414;SDS011;20303;48.302;11.914;2023-07-08T14:49:50;9.88;;;6.78;;
29414;SDS011;20303;48.302;11.914;2023-07-08T14:59:51;9.05;;;6.47;;
29414;SDS011;20303;48.302;11.914;2023-07-08T15:09:52;8.15;;;6.07;;
29414;SDS011;20303;48.302;11.914;2023-07-08T15:19:53;8.25;;;6.47;;
29414;SDS011;20303;48.302;11.914;2023-07-08T15:29:54;8.68;;;6.43;;
29414;SDS011;20303;48.302;11.914;2023-07-08T15:39:55;7.15;;;5.88;;
29414;SDS011;20303;48.302;11.914;2023-07-08T15:49:56;8.25;;;5.28;;
29414;SDS011;20303;48.302;11.914;2023-07-08T15:59:57;7.18;;;5.25;;
29414;SDS011;20303;48.302;11.914;2023-07-08T16:09:58;10.00;;;6.90;;
29414;SDS011;20303;48.302;11.914;2023-07-08T16:19:59;10.80;;;7.05;;
29414;SDS011;20303;48.302;11.914;2023-07-08T16:30:00;10.75;;;7.18;;
29414;SDS011;20303;48.302;11.914;2023-07-08T16:40:02;9.10;;;6.60;;
29414;SDS011;20303;48.302;11.914;2023-07-08T16:50:04;8.88;;;6.97;;
29414;SDS011;20303;48.302;11.914;2023-07-08T17:00:06;8.85;;;6.95;;
29414;SDS011;20303;48.302;11.914;2023-07-08T17:10:16;7.20;;;5.60;;
29414;SDS011;20303;48.302;11.914;2023-07-08T17:20:23;6.15;;;5.28;;
29414;SDS011;20303;48.302;11.914;2023-07-08T17:30:25;5.80;;;4.90;;
29414;SDS011;20303;48.302;11.914;2023-07-08T17:40:27;5.25;;;4.07;;
29414;SDS011;20303;48.302;11.914;2023-07-08T17:50:28;4.70;;;3.92;;
29414;SDS011;20303;48.302;11.914;2023-07-08T18:00:29;6.63;;;4.97;;
29414;SDS011;20303;48.302;11.914;2023-07-08T18:10:30;11.50;;;6.53;;
29414;SDS011;20303;48.302;11.914;2023-07-08T18:20:33;9.93;;;6.72;;
29414;SDS011;20303;48.302;11.914;2023-07-08T18:30:35;9.98;;;6.60;;
29414;SDS011;20303;48.302;11.914;2023-07-08T18:40:39;10.18;;;6.68;;
29414;SDS011;20303;48.302;11.914;2023-07-08T18:50:45;10.10;;;6.60;;
29414;SDS011;20303;48.302;11.914;2023-07-08T19:00:52;9.95;;;7.07;;
29414;SDS011;20303;48.302;11.914;2023-07-08T19:10:54;10.50;;;7.38;;
29414;SDS011;20303;48.302;11.914;2023-07-08T19:20:57;9.98;;;7.20;;
29414;SDS011;20303;48.302;11.914;2023-07-08T19:30:58;12.40;;;7.53;;
29414;SDS011;20303;48.302;11.914;2023-07-08T19:40:59;12.05;;;8.73;;
29414;SDS011;20303;48.302;11.914;2023-07-08T19:51:00;12.82;;;8.15;;
29414;SDS011;20303;48.302;11.914;2023-07-08T20:01:01;14.45;;;8.48;;
29414;SDS011;20303;48.302;11.914;2023-07-08T20:11:02;16.92;;;8.63;;
29414;SDS011;20303;48.302;11.914;2023-07-08T20:21:03;16.45;;;8.40;;
29414;SDS011;20303;48.302;11.914;2023-07-08T20:31:04;13.77;;;7.65;;
29414;SDS011;20303;48.302;11.914;2023-07-08T20:41:05;14.82;;;7.60;;
29414;SDS011;20303;48.302;11.914;2023-07-08T20:51:07;16.90;;;8.35;;
29414;SDS011;20303;48.302;11.914;2023-07-08T21:01:08;12.68;;;7.88;;
29414;SDS011;20303;48.302;11.914;2023-07-08T21:11:10;15.85;;;7.82;;
29414;SDS011;20303;48.302;11.914;2023-07-08T21:21:11;13.50;;;7.63;;
29414;SDS011;20303;48.302;11.914;2023-07-08T21:31:13;12.05;;;8.13;;
29414;SDS011;20303;48.302;11.914;2023-07-08T21:41:15;12.63;;;8.50;;
29414;SDS011;20303;48.302;11.914;2023-07-08T22:01:29;12.30;;;8.37;;
29414;SDS011;20303;48.302;11.914;2023-07-08T22:11:34;12.88;;;8.30;;
29414;SDS011;20303;48.302;11.914;2023-07-08T22:21:36;13.65;;;8.50;;
29414;SDS011;20303;48.302;11.914;2023-07-08T22:31:39;11.77;;;8.98;;
29414;SDS011;20303;48.302;11.914;2023-07-08T22:41:42;14.27;;;8.65;;
29414;SDS011;20303;48.302;11.914;2023-07-08T22:51:45;12.75;;;9.05;;
29414;SDS011;20303;48.302;11.914;2023-07-08T23:01:46;12.50;;;8.95;;
29414;SDS011;20303;48.302;11.914;2023-07-08T23:11:47;13.35;;;8.68;;
29414;SDS011;20303;48.302;11.914;2023-07-08T23:21:48;13.23;;;9.68;;
29414;SDS011;20303;48.302;11.914;2023-07-08T23:31:49;14.15;;;9.07;;
29414;SDS011;20303;48.302;11.914;2023-07-08T23:41:51;21.50;;;9.93;;
29414;SDS011;20303;48.302;11.914;2023-07-08T23:51:52;21.27;;;10.30;;
